createdAt,value
2022-07-30T00:01:48.447Z,8.10
2022-07-30T00:04:15.301Z,6.70
2022-07-30T00:06:42.193Z,5.63
2022-07-30T00:09:09.213Z,4.60
2022-07-30T00:11:36.306Z,3.70
2022-07-30T00:14:03.784Z,4.43
2022-07-30T00:16:32.129Z,4.90
2022-07-30T00:18:59.154Z,5.40
2022-07-30T00:21:35.875Z,4.47
2022-07-30T00:24:06.640Z,4.37
2022-07-30T00:26:33.541Z,3.77
2022-07-30T00:29:00.753Z,4.17
2022-07-30T00:31:28.981Z,3.67
2022-07-30T00:33:57.393Z,5.23
2022-07-30T00:36:24.424Z,5.07
2022-07-30T00:38:51.844Z,4.83
2022-07-30T00:41:18.879Z,4.10
2022-07-30T00:43:45.894Z,5.40
2022-07-30T00:46:14.786Z,4.93
2022-07-30T00:48:42.051Z,4.63
2022-07-30T00:51:10.929Z,4.80
2022-07-30T00:53:38.613Z,4.17
2022-07-30T00:56:05.732Z,4.37
2022-07-30T00:58:32.653Z,4.73
2022-07-30T01:00:59.777Z,5.00
2022-07-30T01:03:26.850Z,4.00
2022-07-30T01:05:54.099Z,4.87
2022-07-30T01:08:23.376Z,4.33
2022-07-30T01:10:52.000Z,4.47
2022-07-30T01:13:18.924Z,5.67
2022-07-30T01:15:45.988Z,4.50
2022-07-30T01:18:13.955Z,5.27
2022-07-30T01:20:47.503Z,6.27
2022-07-30T01:23:22.666Z,5.03
2022-07-30T01:25:57.283Z,5.20
2022-07-30T01:28:28.684Z,4.03
2022-07-30T01:30:57.961Z,5.23
2022-07-30T01:33:26.754Z,5.50
2022-07-30T01:35:55.667Z,4.40
2022-07-30T01:38:25.094Z,4.00
2022-07-30T01:40:55.883Z,4.20
2022-07-30T01:43:24.758Z,4.80
2022-07-30T01:45:53.535Z,4.77
2022-07-30T01:48:23.976Z,5.90
2022-07-30T01:50:54.874Z,5.90
2022-07-30T01:53:25.333Z,6.50
2022-07-30T01:55:55.640Z,6.27
2022-07-30T01:58:26.565Z,5.23
2022-07-30T02:00:58.266Z,5.77
2022-07-30T02:03:27.961Z,4.73
2022-07-30T02:05:58.447Z,5.30
2022-07-30T02:08:34.849Z,4.83
2022-07-30T02:11:08.006Z,5.73
2022-07-30T02:13:44.872Z,7.40
2022-07-30T02:16:17.903Z,5.50
2022-07-30T02:18:58.429Z,4.70
2022-07-30T02:21:36.394Z,4.50
2022-07-30T02:24:08.010Z,6.27
2022-07-30T02:26:38.260Z,4.40
2022-07-30T02:29:11.444Z,6.13
2022-07-30T02:31:41.649Z,4.17
2022-07-30T02:34:10.811Z,4.53
2022-07-30T02:36:39.157Z,5.00
2022-07-30T02:39:06.553Z,4.67
2022-07-30T02:41:36.546Z,5.40
2022-07-30T02:44:05.652Z,4.53
2022-07-30T02:46:34.709Z,5.13
2022-07-30T02:49:23.319Z,4.30
2022-07-30T02:51:52.007Z,4.27
2022-07-30T02:54:21.316Z,4.83
2022-07-30T02:56:50.607Z,4.07
2022-07-30T02:59:21.069Z,5.27
2022-07-30T03:01:49.462Z,5.27
2022-07-30T03:04:20.639Z,6.87
2022-07-30T03:06:49.858Z,4.57
2022-07-30T03:09:18.138Z,5.03
2022-07-30T03:11:45.844Z,5.87
2022-07-30T03:14:12.904Z,4.57
2022-07-30T03:16:45.689Z,7.07
2022-07-30T03:19:16.891Z,6.87
2022-07-30T03:21:45.963Z,5.67
2022-07-30T03:24:14.722Z,6.83
2022-07-30T03:26:42.782Z,6.03
2022-07-30T03:29:10.852Z,5.43
2022-07-30T03:31:41.596Z,4.63
2022-07-30T03:34:09.921Z,5.60
2022-07-30T03:36:41.536Z,5.23
2022-07-30T03:39:09.252Z,4.97
2022-07-30T03:41:37.264Z,5.50
2022-07-30T03:44:08.356Z,5.37
2022-07-30T03:46:37.222Z,5.83
2022-07-30T03:49:06.508Z,6.70
2022-07-30T03:51:34.601Z,4.87
2022-07-30T03:54:02.937Z,6.47
2022-07-30T03:56:48.607Z,5.93
2022-07-30T03:59:33.517Z,6.50
2022-07-30T04:02:07.177Z,4.97
2022-07-30T04:04:57.195Z,5.97
2022-07-30T04:07:24.208Z,6.27
2022-07-30T04:09:52.495Z,5.23
2022-07-30T04:12:29.376Z,4.83
2022-07-30T04:14:57.543Z,6.13
2022-07-30T04:17:29.090Z,5.63
2022-07-30T04:20:02.375Z,5.87
2022-07-30T04:22:33.846Z,5.90
2022-07-30T04:25:01.733Z,5.67
2022-07-30T04:27:29.358Z,7.13
2022-07-30T04:29:56.727Z,5.10
2022-07-30T04:32:23.858Z,6.27
2022-07-30T04:35:12.298Z,6.67
2022-07-30T04:38:16.967Z,5.60
2022-07-30T04:40:48.419Z,6.97
2022-07-30T04:43:15.935Z,7.67
2022-07-30T04:45:43.446Z,5.70
2022-07-30T04:48:11.431Z,7.80
2022-07-30T04:51:02.222Z,5.70
2022-07-30T04:53:30.845Z,6.40
2022-07-30T04:56:02.454Z,6.07
2022-07-30T04:58:31.723Z,6.53
2022-07-30T05:01:00.288Z,7.63
2022-07-30T05:03:31.502Z,8.77
2022-07-30T05:06:01.046Z,5.43
2022-07-30T05:08:31.449Z,6.53
2022-07-30T05:11:01.295Z,7.23
2022-07-30T05:13:34.411Z,8.07
2022-07-30T05:16:06.026Z,7.23
2022-07-30T05:18:32.955Z,7.53
2022-07-30T05:21:01.196Z,6.90
2022-07-30T05:23:32.153Z,6.57
2022-07-30T05:26:05.667Z,5.63
2022-07-30T05:28:40.100Z,6.17
2022-07-30T05:31:11.061Z,5.10
2022-07-30T05:33:42.422Z,9.00
2022-07-30T05:36:13.792Z,7.47
2022-07-30T05:38:41.006Z,5.30
2022-07-30T05:41:32.915Z,7.90
2022-07-30T05:44:22.116Z,6.27
2022-07-30T05:46:50.813Z,6.27
2022-07-30T05:49:18.091Z,7.03
2022-07-30T05:51:46.516Z,6.73
2022-07-30T05:54:13.760Z,5.87
2022-07-30T05:56:59.654Z,7.30
2022-07-30T05:59:34.776Z,5.47
2022-07-30T06:02:03.250Z,6.50
2022-07-30T06:04:53.685Z,6.80
2022-07-30T06:07:22.835Z,6.30
2022-07-30T06:09:52.201Z,6.97
2022-07-30T06:12:19.213Z,5.83
2022-07-30T06:14:46.106Z,6.23
2022-07-30T06:17:17.738Z,7.03
2022-07-30T06:20:01.621Z,6.00
2022-07-30T06:22:33.950Z,7.50
2022-07-30T06:25:08.785Z,8.37
2022-07-30T06:27:39.768Z,6.90
2022-07-30T06:30:09.953Z,6.27
2022-07-30T06:32:37.052Z,7.30
2022-07-30T06:35:05.710Z,8.13
2022-07-30T06:37:58.846Z,8.10
2022-07-30T06:40:23.968Z,6.07
2022-07-30T06:43:21.334Z,8.43
2022-07-30T06:46:01.266Z,7.77
2022-07-30T06:48:37.774Z,7.13
2022-07-30T06:51:06.097Z,9.30
2022-07-30T06:53:39.973Z,5.57
2022-07-30T06:56:12.175Z,8.80
2022-07-30T06:58:52.759Z,6.07
2022-07-30T07:01:38.364Z,6.77
2022-07-30T07:04:05.388Z,7.73
2022-07-30T07:06:33.059Z,7.53
2022-07-30T07:09:01.879Z,9.83
2022-07-30T07:11:35.883Z,8.10
2022-07-30T07:14:08.323Z,10.60
2022-07-30T07:16:36.347Z,6.70
2022-07-30T07:19:59.606Z,9.53
2022-07-30T07:22:11.152Z,7.00
2022-07-30T07:24:39.545Z,7.90
2022-07-30T07:27:15.270Z,8.17
2022-07-30T07:30:01.210Z,8.90
2022-07-30T07:32:32.779Z,7.40
2022-07-30T07:34:59.744Z,7.40
2022-07-30T07:37:27.011Z,6.37
2022-07-30T07:39:55.434Z,7.03
2022-07-30T07:42:22.392Z,5.57
2022-07-30T07:44:50.330Z,5.83
2022-07-30T07:47:18.214Z,5.97
2022-07-30T07:49:57.467Z,5.43
2022-07-30T07:52:24.464Z,5.93
2022-07-30T07:54:51.384Z,6.87
2022-07-30T07:57:20.331Z,4.73
2022-07-30T07:59:47.860Z,7.17
2022-07-30T08:02:24.145Z,4.33
2022-07-30T08:04:59.589Z,4.80
2022-07-30T08:07:45.693Z,3.67
2022-07-30T08:10:31.106Z,5.23
2022-07-30T08:13:49.217Z,4.93
2022-07-30T08:16:16.984Z,4.30
2022-07-30T08:18:43.911Z,7.00
2022-07-30T08:21:21.950Z,4.53
2022-07-30T08:23:48.879Z,4.90
2022-07-30T08:26:15.850Z,4.83
2022-07-30T08:28:45.664Z,5.00
2022-07-30T08:31:12.921Z,4.17
2022-07-30T08:33:39.838Z,5.13
2022-07-30T08:36:09.589Z,5.30
2022-07-30T08:38:37.512Z,5.67
2022-07-30T08:41:05.254Z,4.80
2022-07-30T08:43:35.252Z,4.23
2022-07-30T08:46:05.309Z,4.93
2022-07-30T08:48:59.832Z,3.97
2022-07-30T08:51:35.688Z,3.37
2022-07-30T08:54:18.886Z,4.73
2022-07-30T08:56:46.102Z,4.47
2022-07-30T08:59:13.538Z,3.97
2022-07-30T09:01:41.749Z,3.43
2022-07-30T09:04:08.649Z,4.97
2022-07-30T09:06:36.609Z,4.80
2022-07-30T09:09:05.191Z,4.17
2022-07-30T09:11:34.245Z,4.67
2022-07-30T09:14:08.757Z,3.87
2022-07-30T09:16:36.712Z,5.67
2022-07-30T09:19:14.626Z,4.70
2022-07-30T09:21:41.874Z,4.67
2022-07-30T09:24:20.877Z,3.17
2022-07-30T09:27:44.212Z,3.13
2022-07-30T09:30:45.536Z,4.17
2022-07-30T09:33:36.149Z,4.53
2022-07-30T09:36:33.527Z,5.00
2022-07-30T09:39:34.212Z,2.63
2022-07-30T09:42:21.642Z,3.77
2022-07-30T09:44:50.907Z,4.43
2022-07-30T09:47:31.835Z,3.87
2022-07-30T09:50:06.991Z,3.10
2022-07-30T09:52:37.160Z,4.57
2022-07-30T09:55:13.257Z,4.37
2022-07-30T09:57:57.729Z,3.60
2022-07-30T10:00:28.543Z,4.70
2022-07-30T10:03:21.811Z,3.70
2022-07-30T10:06:34.137Z,4.03
2022-07-30T10:09:14.124Z,4.32
2022-07-30T10:11:46.235Z,4.18
2022-07-30T10:14:13.994Z,2.42
2022-07-30T10:16:41.167Z,2.53
2022-07-30T10:19:15.934Z,3.42
2022-07-30T10:22:21.411Z,3.38
2022-07-30T10:25:16.339Z,3.28
2022-07-30T10:28:03.194Z,4.18
2022-07-30T10:30:32.280Z,4.97
2022-07-30T10:33:01.840Z,2.10
2022-07-30T10:35:34.916Z,2.30
2022-07-30T10:38:09.253Z,2.60
2022-07-30T10:40:40.940Z,3.42
2022-07-30T10:43:35.173Z,2.10
2022-07-30T10:46:10.541Z,2.50
2022-07-30T10:48:49.201Z,3.97
2022-07-30T10:51:25.344Z,2.88
2022-07-30T10:54:01.661Z,3.22
2022-07-30T10:56:29.984Z,2.85
2022-07-30T10:59:03.190Z,3.22
2022-07-30T11:02:07.032Z,3.17
2022-07-30T11:04:34.212Z,3.97
2022-07-30T11:07:31.425Z,5.03
2022-07-30T11:10:08.774Z,4.47
2022-07-30T11:12:55.532Z,4.05
2022-07-30T11:15:22.821Z,2.78
2022-07-30T11:18:04.486Z,3.05
2022-07-30T11:20:32.112Z,2.78
2022-07-30T11:23:38.999Z,2.88
2022-07-30T11:26:06.290Z,2.83
2022-07-30T11:28:38.406Z,3.28
2022-07-30T11:31:37.149Z,4.72
2022-07-30T11:34:28.520Z,3.25
2022-07-30T11:37:18.199Z,3.00
2022-07-30T11:40:12.246Z,3.92
2022-07-30T11:42:41.405Z,3.38
2022-07-30T11:45:27.035Z,2.67
2022-07-30T11:47:57.992Z,3.10
2022-07-30T11:50:27.100Z,2.60
2022-07-30T11:52:55.377Z,2.33
2022-07-30T11:55:24.331Z,2.70
2022-07-30T11:57:51.614Z,3.42
2022-07-30T12:00:18.826Z,4.10
2022-07-30T12:02:45.989Z,2.03
2022-07-30T12:05:14.813Z,2.13
2022-07-30T12:07:42.084Z,4.63
2022-07-30T12:10:13.560Z,1.95
2022-07-30T12:12:43.531Z,4.45
2022-07-30T12:15:11.825Z,3.50
2022-07-30T12:17:42.887Z,2.65
2022-07-30T12:20:18.576Z,2.13
2022-07-30T12:22:46.218Z,1.88
2022-07-30T12:25:14.040Z,2.88
2022-07-30T12:27:49.157Z,1.90
2022-07-30T12:30:19.043Z,2.97
2022-07-30T12:32:47.703Z,2.42
2022-07-30T12:35:14.688Z,2.85
2022-07-30T12:38:02.418Z,1.77
2022-07-30T12:40:29.624Z,2.35
2022-07-30T12:42:56.634Z,1.60
2022-07-30T12:45:29.390Z,2.13
2022-07-30T12:48:17.174Z,1.90
2022-07-30T12:50:44.514Z,3.05
2022-07-30T12:53:12.883Z,2.80
2022-07-30T12:55:40.809Z,2.22
2022-07-30T12:58:09.120Z,2.88
2022-07-30T13:00:48.191Z,1.90
2022-07-30T13:03:21.098Z,4.07
2022-07-30T13:05:50.239Z,3.15
2022-07-30T13:08:18.651Z,2.90
2022-07-30T13:10:56.027Z,2.38
2022-07-30T13:13:23.017Z,2.40
2022-07-30T13:15:59.946Z,2.42
2022-07-30T13:18:27.768Z,1.87
2022-07-30T13:20:54.752Z,2.67
2022-07-30T13:23:23.052Z,2.38
2022-07-30T13:25:50.159Z,3.00
2022-07-30T13:28:18.041Z,2.50
2022-07-30T13:30:45.675Z,1.95
2022-07-30T13:33:12.737Z,2.50
2022-07-30T13:35:39.645Z,2.60
2022-07-30T13:38:06.885Z,1.60
2022-07-30T13:40:35.456Z,1.52
2022-07-30T13:43:03.248Z,3.05
2022-07-30T13:45:30.469Z,2.25
2022-07-30T13:47:57.567Z,2.03
2022-07-30T13:50:24.509Z,2.67
2022-07-30T13:52:51.840Z,3.13
2022-07-30T13:55:19.203Z,2.55
2022-07-30T13:57:47.594Z,2.22
2022-07-30T14:00:15.102Z,3.60
2022-07-30T14:02:42.490Z,1.83
2022-07-30T14:05:09.767Z,2.83
2022-07-30T14:07:37.855Z,2.58
2022-07-30T14:10:06.985Z,1.63
2022-07-30T14:12:34.380Z,2.92
2022-07-30T14:15:02.657Z,1.80
2022-07-30T14:17:29.550Z,2.13
2022-07-30T14:19:56.519Z,1.85
2022-07-30T14:22:23.567Z,2.15
2022-07-30T14:24:50.530Z,3.03
2022-07-30T14:27:20.399Z,3.58
2022-07-30T14:29:47.462Z,1.98
2022-07-30T14:32:15.806Z,1.80
2022-07-30T14:34:45.426Z,2.28
2022-07-30T14:37:16.580Z,2.83
2022-07-30T14:39:43.544Z,2.17
2022-07-30T14:42:10.938Z,1.80
2022-07-30T14:44:38.161Z,2.35
2022-07-30T14:47:05.747Z,2.53
2022-07-30T14:49:34.217Z,2.80
2022-07-30T14:52:01.272Z,3.60
2022-07-30T14:54:28.501Z,2.63
2022-07-30T14:56:59.130Z,2.50
2022-07-30T14:59:27.917Z,4.10
2022-07-30T15:01:55.461Z,2.27
2022-07-30T15:04:22.907Z,2.23
2022-07-30T15:06:51.318Z,3.10
2022-07-30T15:09:19.745Z,1.80
2022-07-30T15:14:33.604Z,1.53
2022-07-30T15:17:04.145Z,3.07
2022-07-30T15:19:32.124Z,2.73
2022-07-30T15:22:02.232Z,2.00
2022-07-30T15:24:30.136Z,2.63
2022-07-30T15:26:57.029Z,2.07
2022-07-30T15:29:24.399Z,2.20
2022-07-30T15:31:51.409Z,3.17
2022-07-30T15:34:18.387Z,2.17
2022-07-30T15:36:45.683Z,3.17
2022-07-30T15:39:15.465Z,4.83
2022-07-30T15:41:42.536Z,2.27
2022-07-30T15:44:09.608Z,2.07
2022-07-30T15:46:36.533Z,2.20
2022-07-30T15:49:03.523Z,2.50
2022-07-30T15:51:32.042Z,2.00
2022-07-30T15:53:59.634Z,2.17
2022-07-30T15:56:29.685Z,2.50
2022-07-30T15:58:57.906Z,2.47
2022-07-30T16:01:24.864Z,2.67
2022-07-30T16:03:54.642Z,2.07
2022-07-30T16:06:21.632Z,2.40
2022-07-30T16:08:48.647Z,1.73
2022-07-30T16:11:15.898Z,1.80
2022-07-30T16:13:44.247Z,2.83
2022-07-30T16:16:11.253Z,2.37
2022-07-30T16:18:38.212Z,2.30
2022-07-30T16:21:06.005Z,2.50
2022-07-30T16:23:36.735Z,1.83
2022-07-30T16:26:04.148Z,3.03
2022-07-30T16:28:31.145Z,2.20
2022-07-30T16:30:59.364Z,2.20
2022-07-30T16:33:26.545Z,1.97
2022-07-30T16:35:53.389Z,1.67
2022-07-30T16:38:23.211Z,1.87
2022-07-30T16:40:50.419Z,3.50
2022-07-30T16:43:19.821Z,1.90
2022-07-30T16:45:47.466Z,2.90
2022-07-30T16:48:15.836Z,2.37
2022-07-30T16:50:42.761Z,1.77
2022-07-30T16:53:13.837Z,2.20
2022-07-30T16:55:41.851Z,2.40
2022-07-30T16:58:08.888Z,1.70
2022-07-30T17:00:35.943Z,2.63
2022-07-30T17:03:03.248Z,3.03
2022-07-30T17:05:31.558Z,2.77
2022-07-30T17:07:59.702Z,1.83
2022-07-30T17:10:27.087Z,2.47
2022-07-30T17:12:56.980Z,2.47
2022-07-30T17:15:32.625Z,2.13
2022-07-30T17:18:00.347Z,1.93
2022-07-30T17:20:27.402Z,1.57
2022-07-30T17:22:56.123Z,1.40
2022-07-30T17:25:25.608Z,2.57
2022-07-30T17:27:52.540Z,1.27
2022-07-30T17:30:20.429Z,1.97
2022-07-30T17:32:47.436Z,2.87
2022-07-30T17:35:14.307Z,2.80
2022-07-30T17:37:41.250Z,1.70
2022-07-30T17:40:28.095Z,2.40
2022-07-30T17:43:05.829Z,2.67
2022-07-30T17:45:34.337Z,2.90
2022-07-30T17:48:02.043Z,2.03
2022-07-30T17:50:29.462Z,1.93
2022-07-30T17:52:56.411Z,1.87
2022-07-30T17:55:25.060Z,1.90
2022-07-30T17:57:51.943Z,2.00
2022-07-30T18:00:18.886Z,2.90
2022-07-30T18:02:45.779Z,2.50
2022-07-30T18:05:15.482Z,2.97
2022-07-30T18:07:43.127Z,3.27
2022-07-30T18:10:10.762Z,1.90
2022-07-30T18:12:39.621Z,3.43
2022-07-30T18:15:16.335Z,3.27
2022-07-30T18:17:43.229Z,1.87
2022-07-30T18:20:11.057Z,2.43
2022-07-30T18:22:38.289Z,2.50
2022-07-30T18:25:08.237Z,3.33
2022-07-30T18:27:48.090Z,2.00
2022-07-30T18:30:15.839Z,2.97
2022-07-30T18:32:43.314Z,2.53
2022-07-30T18:35:14.183Z,3.53
2022-07-30T18:37:42.645Z,2.13
2022-07-30T18:40:11.012Z,2.10
2022-07-30T18:42:37.941Z,2.00
2022-07-30T18:45:07.124Z,2.13
2022-07-30T18:47:34.650Z,1.87
2022-07-30T18:50:01.708Z,2.53
2022-07-30T18:52:28.687Z,2.03
2022-07-30T18:54:55.569Z,2.93
2022-07-30T18:57:22.424Z,2.53
2022-07-30T18:59:49.419Z,3.70
2022-07-30T19:02:17.626Z,3.53
2022-07-30T19:04:45.097Z,2.93
2022-07-30T19:07:12.197Z,2.67
2022-07-30T19:09:39.120Z,3.83
2022-07-30T19:12:06.792Z,4.50
2022-07-30T19:14:34.014Z,6.77
2022-07-30T19:17:00.813Z,3.83
2022-07-30T19:19:29.123Z,3.40
2022-07-30T19:21:56.895Z,3.20
2022-07-30T19:24:23.913Z,5.07
2022-07-30T19:26:54.863Z,3.47
2022-07-30T19:29:22.105Z,2.97
2022-07-30T19:31:49.723Z,2.23
2022-07-30T19:34:16.617Z,2.53
2022-07-30T19:36:44.841Z,2.40
2022-07-30T19:39:15.916Z,3.07
2022-07-30T19:41:50.951Z,3.03
2022-07-30T19:44:18.768Z,3.80
2022-07-30T19:46:46.564Z,4.50
2022-07-30T19:49:15.890Z,4.23
2022-07-30T19:52:10.379Z,3.30
2022-07-30T19:54:31.102Z,3.20
2022-07-30T19:56:57.960Z,4.03
2022-07-30T19:59:45.051Z,3.83
2022-07-30T20:02:13.767Z,4.23
2022-07-30T20:04:41.297Z,3.80
2022-07-30T20:07:12.107Z,5.37
2022-07-30T20:09:40.337Z,3.40
2022-07-30T20:12:10.264Z,3.60
2022-07-30T20:14:37.158Z,3.33
2022-07-30T20:17:10.341Z,3.07
2022-07-30T20:19:37.824Z,2.60
2022-07-30T20:22:04.770Z,4.60
2022-07-30T20:24:35.519Z,2.90
2022-07-30T20:27:35.479Z,2.33
2022-07-30T20:29:51.421Z,3.70
2022-07-30T20:32:19.926Z,2.20
2022-07-30T20:34:46.844Z,3.23
2022-07-30T20:37:21.725Z,3.07
2022-07-30T20:39:51.159Z,3.13
2022-07-30T20:42:18.632Z,2.30
2022-07-30T20:44:49.306Z,4.10
2022-07-30T20:47:34.653Z,3.13
2022-07-30T20:50:09.261Z,1.70
2022-07-30T20:52:37.045Z,2.83
2022-07-30T20:55:08.568Z,2.63
2022-07-30T20:57:56.888Z,2.60
2022-07-30T21:00:25.356Z,3.40
2022-07-30T21:02:52.359Z,3.20
2022-07-30T21:05:19.958Z,2.60
2022-07-30T21:07:47.518Z,3.50
2022-07-30T21:10:15.788Z,2.70
2022-07-30T21:12:44.760Z,3.80
2022-07-30T21:15:23.678Z,3.20
2022-07-30T21:17:51.364Z,5.10
2022-07-30T21:20:27.458Z,4.87
2022-07-30T21:22:55.024Z,4.47
2022-07-30T21:25:33.014Z,4.77
2022-07-30T21:28:00.489Z,4.57
2022-07-30T21:30:30.543Z,2.60
2022-07-30T21:32:57.703Z,2.90
2022-07-30T21:35:25.059Z,3.00
2022-07-30T21:37:58.973Z,2.77
2022-07-30T21:40:27.749Z,2.77
2022-07-30T21:42:56.158Z,4.33
2022-07-30T21:45:23.615Z,2.53
2022-07-30T21:47:54.551Z,2.37
2022-07-30T21:50:21.568Z,4.90
2022-07-30T21:52:48.669Z,5.47
2022-07-30T21:55:15.572Z,3.50
2022-07-30T21:57:43.793Z,2.60
2022-07-30T22:00:21.799Z,4.47
2022-07-30T22:02:52.974Z,3.90
2022-07-30T22:05:22.079Z,2.83
2022-07-30T22:07:50.914Z,2.83
2022-07-30T22:10:21.613Z,2.70
2022-07-30T22:12:50.115Z,3.10
2022-07-30T22:15:18.088Z,3.97
2022-07-30T22:17:58.686Z,3.47
2022-07-30T22:20:28.899Z,3.47
2022-07-30T22:22:56.446Z,3.23
2022-07-30T22:25:23.663Z,3.43
2022-07-30T22:28:08.116Z,2.70
2022-07-30T22:30:35.531Z,5.47
2022-07-30T22:33:10.809Z,3.87
2022-07-30T22:35:41.500Z,3.00
2022-07-30T22:38:13.777Z,2.73
2022-07-30T22:40:41.169Z,3.10
2022-07-30T22:43:12.551Z,2.83
2022-07-30T22:45:48.209Z,3.20
2022-07-30T22:48:16.768Z,4.00
2022-07-30T22:50:43.665Z,3.20
2022-07-30T22:54:03.049Z,4.13
2022-07-30T22:55:58.761Z,3.83
2022-07-30T22:58:28.837Z,3.67
2022-07-30T23:00:56.594Z,4.43
2022-07-30T23:03:23.522Z,4.17
2022-07-30T23:05:56.436Z,3.40
2022-07-30T23:08:30.367Z,3.70
2022-07-30T23:10:59.278Z,2.73
2022-07-30T23:13:28.493Z,4.73
2022-07-30T23:15:55.916Z,4.03
2022-07-30T23:18:22.952Z,3.53
2022-07-30T23:20:50.530Z,4.33
2022-07-30T23:23:17.403Z,4.23
2022-07-30T23:25:44.430Z,2.97
2022-07-30T23:28:11.570Z,3.27
2022-07-30T23:30:39.821Z,3.10
2022-07-30T23:33:06.778Z,3.17
2022-07-30T23:35:34.086Z,3.07
2022-07-30T23:38:01.106Z,3.20
2022-07-30T23:40:28.416Z,3.90
2022-07-30T23:42:56.064Z,4.47
2022-07-30T23:45:23.009Z,2.97
2022-07-30T23:48:01.642Z,4.73
2022-07-30T23:50:30.349Z,3.53
2022-07-30T23:52:57.394Z,2.73
2022-07-30T23:55:24.539Z,2.33
2022-07-30T23:57:51.647Z,3.97
